Portada
METAR-TAF:

METAR-TAF

Aeropuertos :

Yap, Yap Island, Micronesia

Aeropuerto Internacional de Yap

latitud: 09-29N, longitud: 138-05E, altitud: 28 m

Observación

El informe se hizo hace 23 minutos, a las 10:51 UTC
Viento 4 kt con dirección variable
Temperatura 28°C
Humedad 89%
Presión 1011 hPa
Visibilidad: 19.3 km
Nubes dispersas a una altura de 1600 ft
Nubes dispersas a una altura de 13000 ft
Cielo nuboso a una altura de 30000 ft

METAR: PTYA 291051Z VRB04KT 12SM SCT016 SCT130 BKN300 28/26 A2984 RMK SLP107 T02810257

Hora: 21:14 (11:14 UTC)

Pronóstico

El informe se hizo hace 5 horas y 54 minutos, a las 05:20 UTC
Pronóstico válido del 29 a las 06 UTC al 30 a las 06 UTC
Viento 7 kt del este
Visibilidad: 10 km
Nubes dispersas a una altura de 2000 ft
Cielo nuboso a una altura de 30000 ft
chaparrones en las proximidades

TAF: PTYA 290520Z 2906/3006 09007KT P6SM VCSH SCT020 BKN300

Observaciones y pronósticos meteorológicos de más de 4000 aeropuertos (mensajes METAR y TAF).

Los puntos amarillos y rojos representan las estaciones disponibles.

Ponga el ratón en el punto deseado para ver el nombre de la estación.

Haga clic para ver las observaciones y los pronósticos meteorológicos.

Para cambiar el mapa : haga clic en los botones verdes con una cruz de color negro para hacer un zoom, en el botón verde con un guión para alejar o en las flechas verdes para mapas adyacentes.


METAR-TAF: